createdAt,value
2019-05-10T00:00:51.893Z,99286.59
2019-05-10T00:03:39.789Z,99291.21
2019-05-10T00:06:27.855Z,99289.38
2019-05-10T00:08:57.169Z,99288.23
2019-05-10T00:11:34.800Z,99295.06
2019-05-10T00:14:15.304Z,99291.73
2019-05-10T00:16:46.119Z,99293.58
2019-05-10T00:19:16.172Z,99295.81
2019-05-10T00:21:46.203Z,99297.52
2019-05-10T00:24:16.171Z,99297.08
2019-05-10T00:26:46.223Z,99300.98
2019-05-10T00:29:16.291Z,99301.63
2019-05-10T00:31:46.354Z,99302.82
2019-05-10T00:34:16.520Z,99305.33
2019-05-10T00:36:46.487Z,99310.53
2019-05-10T00:39:19.384Z,99309.57
2019-05-10T00:41:48.188Z,99311.28
2019-05-10T00:44:18.159Z,99309.52
2019-05-10T00:46:48.206Z,99313.78
2019-05-10T00:49:18.246Z,99315.45
2019-05-10T00:51:48.225Z,99317.89
2019-05-10T00:54:18.345Z,99323.98
2019-05-10T00:56:48.341Z,99318.98
2019-05-10T00:59:18.388Z,99319.44
2019-05-10T01:01:48.398Z,99314.91
2019-05-10T01:04:18.389Z,99312.38
2019-05-10T01:06:48.606Z,99318.51
2019-05-10T01:09:18.693Z,99316.66
2019-05-10T01:11:48.674Z,99316.89
2019-05-10T01:14:18.707Z,99312.98
2019-05-10T01:16:48.718Z,99308.34
2019-05-10T01:19:18.721Z,99304.30
2019-05-10T01:21:48.700Z,99311.63
2019-05-10T01:24:19.244Z,99312.24
2019-05-10T01:26:49.276Z,99312.47
2019-05-10T01:29:19.274Z,99314.48
2019-05-10T01:31:49.282Z,99313.91
2019-05-10T01:34:19.267Z,99309.97
2019-05-10T01:36:49.269Z,99315.66
2019-05-10T01:39:20.412Z,99308.30
2019-05-10T01:41:52.273Z,99308.42
2019-05-10T01:44:22.375Z,99312.02
2019-05-10T01:46:52.372Z,99307.42
2019-05-10T01:49:22.391Z,99309.23
2019-05-10T01:51:52.365Z,99311.50
2019-05-10T01:54:22.380Z,99310.53
2019-05-10T01:56:52.355Z,99310.09
2019-05-10T01:59:22.445Z,99309.27
2019-05-10T02:01:52.424Z,99303.17
2019-05-10T02:04:22.435Z,99302.21
2019-05-10T02:06:52.431Z,99301.98
2019-05-10T02:09:22.698Z,99299.80
2019-05-10T02:11:53.485Z,99307.29
2019-05-10T02:14:23.474Z,99304.84
2019-05-10T02:16:53.542Z,99298.70
2019-05-10T02:19:23.521Z,99303.57
2019-05-10T02:21:53.501Z,99305.14
2019-05-10T02:24:24.623Z,99308.26
2019-05-10T02:26:54.586Z,99305.41
2019-05-10T02:29:24.655Z,99298.80
2019-05-10T02:31:54.639Z,99299.06
2019-05-10T02:34:24.634Z,99294.06
2019-05-10T02:36:54.696Z,99300.15
2019-05-10T02:39:24.695Z,99300.94
2019-05-10T02:41:54.747Z,99292.75
2019-05-10T02:44:24.726Z,99294.19
2019-05-10T02:46:54.820Z,99301.46
2019-05-10T02:49:24.813Z,99292.61
2019-05-10T02:51:54.901Z,99295.02
2019-05-10T02:54:25.011Z,99292.78
2019-05-10T02:56:56.263Z,99291.43
2019-05-10T02:59:27.105Z,99292.14
2019-05-10T03:01:57.681Z,99291.42
2019-05-10T03:04:28.742Z,99292.13
2019-05-10T03:07:06.944Z,99290.81
2019-05-10T03:09:37.004Z,99290.20
2019-05-10T03:12:19.019Z,99289.16
2019-05-10T03:14:52.079Z,99286.91
2019-05-10T03:17:22.222Z,99283.55
2019-05-10T03:19:54.166Z,99285.50
2019-05-10T03:22:25.923Z,99290.02
2019-05-10T03:24:56.170Z,99293.58
2019-05-10T03:27:26.172Z,99297.30
2019-05-10T03:29:56.322Z,99290.98
2019-05-10T03:32:26.313Z,99283.67
2019-05-10T03:34:56.329Z,99292.00
2019-05-10T03:37:27.061Z,99295.38
2019-05-10T03:39:57.130Z,99299.89
2019-05-10T03:42:27.162Z,99296.82
2019-05-10T03:44:57.230Z,99294.45
2019-05-10T03:47:27.230Z,99289.67
2019-05-10T03:49:57.333Z,99292.39
2019-05-10T03:52:27.319Z,99297.05
2019-05-10T03:54:57.393Z,99289.67
2019-05-10T03:57:27.378Z,99287.27
2019-05-10T03:59:57.399Z,99298.70
2019-05-10T04:02:27.473Z,99292.52
2019-05-10T04:04:57.472Z,99288.89
2019-05-10T04:07:27.547Z,99293.84
2019-05-10T04:09:57.601Z,99295.11
2019-05-10T04:12:27.599Z,99296.20
2019-05-10T04:14:57.624Z,99296.59
2019-05-10T04:17:27.674Z,99291.69
2019-05-10T04:19:57.732Z,99289.92
2019-05-10T04:22:27.815Z,99290.89
2019-05-10T04:24:57.848Z,99290.51
2019-05-10T04:27:32.348Z,99298.88
2019-05-10T04:29:59.559Z,99294.41
2019-05-10T04:32:29.554Z,99295.64
2019-05-10T04:34:59.563Z,99303.27
2019-05-10T04:37:29.590Z,99304.27
2019-05-10T04:40:00.661Z,99301.46
2019-05-10T04:42:30.756Z,99309.78
2019-05-10T04:45:00.806Z,99306.94
2019-05-10T04:47:30.845Z,99310.48
2019-05-10T04:50:00.876Z,99307.34
2019-05-10T04:52:32.052Z,99308.56
2019-05-10T04:55:02.079Z,99310.84
2019-05-10T04:57:47.965Z,99315.70
2019-05-10T05:00:05.726Z,99314.78
2019-05-10T05:02:35.734Z,99318.73
2019-05-10T05:05:07.520Z,99315.39
2019-05-10T05:07:37.553Z,99320.97
2019-05-10T05:10:09.139Z,99322.36
2019-05-10T05:12:39.182Z,99322.89
2019-05-10T05:15:09.909Z,99323.68
2019-05-10T05:17:39.925Z,99325.26
2019-05-10T05:20:10.415Z,99325.17
2019-05-10T05:22:40.403Z,99325.39
2019-05-10T05:25:10.526Z,99323.42
2019-05-10T05:27:40.620Z,99331.26
2019-05-10T05:30:10.669Z,99321.22
2019-05-10T05:32:44.614Z,99325.79
2019-05-10T05:35:15.547Z,99325.13
2019-05-10T05:37:45.442Z,99321.39
2019-05-10T05:40:15.714Z,99317.80
2019-05-10T05:42:45.721Z,99321.93
2019-05-10T05:45:15.850Z,99314.70
2019-05-10T05:47:45.865Z,99322.67
2019-05-10T05:50:15.914Z,99321.80
2019-05-10T05:52:45.929Z,99322.98
2019-05-10T05:55:16.002Z,99324.24
2019-05-10T05:57:48.398Z,99318.55
2019-05-10T06:00:20.927Z,99317.32
2019-05-10T06:02:50.939Z,99314.72
2019-05-10T06:05:33.859Z,99323.09
2019-05-10T06:07:54.255Z,99313.47
2019-05-10T06:10:24.239Z,99321.05
2019-05-10T06:12:54.229Z,99321.62
2019-05-10T06:15:28.925Z,99316.88
2019-05-10T06:17:57.579Z,99317.95
2019-05-10T06:20:27.777Z,99329.86
2019-05-10T06:23:06.581Z,99324.08
2019-05-10T06:25:39.552Z,99320.22
2019-05-10T06:28:01.186Z,99321.30
2019-05-10T06:30:31.203Z,99329.44
2019-05-10T06:33:11.859Z,99324.79
2019-05-10T06:35:32.923Z,99322.66
2019-05-10T06:38:02.945Z,99327.31
2019-05-10T06:40:37.539Z,99325.03
2019-05-10T06:43:07.056Z,99336.65
2019-05-10T06:45:36.454Z,99329.21
2019-05-10T06:48:06.441Z,99332.66
2019-05-10T06:50:36.454Z,99328.73
2019-05-10T06:53:10.736Z,99329.56
2019-05-10T06:55:38.165Z,99323.59
2019-05-10T06:58:08.152Z,99324.33
2019-05-10T07:00:44.494Z,99325.89
2019-05-10T07:03:09.851Z,99324.09
2019-05-10T07:05:39.893Z,99327.55
2019-05-10T07:08:19.721Z,99328.28
2019-05-10T07:10:42.156Z,99335.47
2019-05-10T07:13:12.365Z,99335.20
2019-05-10T07:15:44.765Z,99333.28
2019-05-10T07:18:16.783Z,99330.92
2019-05-10T07:20:45.869Z,99322.67
2019-05-10T07:23:15.864Z,99329.36
2019-05-10T07:25:46.714Z,99333.80
2019-05-10T07:28:17.807Z,99335.09
2019-05-10T07:30:49.049Z,99334.14
2019-05-10T07:33:19.065Z,99333.69
2019-05-10T07:35:49.123Z,99333.20
2019-05-10T07:38:23.454Z,99326.50
2019-05-10T07:40:50.820Z,99332.34
2019-05-10T07:43:26.633Z,99328.76
2019-05-10T07:45:58.658Z,99323.54
2019-05-10T07:48:24.325Z,99324.36
2019-05-10T07:50:54.321Z,99328.52
2019-05-10T07:53:25.230Z,99327.95
2019-05-10T07:55:59.990Z,99327.22
2019-05-10T07:58:27.049Z,99333.09
2019-05-10T08:00:57.178Z,99327.72
2019-05-10T08:03:29.644Z,99328.91
2019-05-10T08:06:01.889Z,99335.12
2019-05-10T08:08:30.585Z,99330.23
2019-05-10T08:11:00.877Z,99336.20
2019-05-10T08:13:30.899Z,99336.31
2019-05-10T08:16:05.505Z,99328.80
2019-05-10T08:18:32.642Z,99334.89
2019-05-10T08:21:17.992Z,99335.27
2019-05-10T08:23:34.321Z,99333.80
2019-05-10T08:26:04.720Z,99333.91
2019-05-10T08:28:37.923Z,99332.64
2019-05-10T08:31:07.562Z,99339.84
2019-05-10T08:33:37.629Z,99338.55
2019-05-10T08:36:07.634Z,99330.30
2019-05-10T08:38:39.829Z,99334.99
2019-05-10T08:41:16.500Z,99332.72
2019-05-10T08:43:43.005Z,99332.18
2019-05-10T08:46:12.759Z,99337.67
2019-05-10T08:48:50.256Z,99337.43
2019-05-10T08:51:14.516Z,99344.20
2019-05-10T08:53:47.096Z,99344.23
2019-05-10T08:56:20.916Z,99339.23
2019-05-10T08:58:48.013Z,99342.34
2019-05-10T09:01:26.595Z,99342.16
2019-05-10T09:03:55.066Z,99341.87
2019-05-10T09:06:22.129Z,99345.92
2019-05-10T09:09:01.396Z,99343.08
2019-05-10T09:11:23.850Z,99340.33
2019-05-10T09:13:57.484Z,99353.22
2019-05-10T09:16:29.235Z,99345.03
2019-05-10T09:18:57.444Z,99354.61
2019-05-10T09:21:27.442Z,99352.55
2019-05-10T09:24:01.517Z,99353.28
2019-05-10T09:26:29.224Z,99347.84
2019-05-10T09:29:01.476Z,99357.57
2019-05-10T09:31:32.656Z,99361.64
2019-05-10T09:34:03.941Z,99361.74
2019-05-10T09:36:36.213Z,99357.69
2019-05-10T09:39:09.210Z,99358.91
2019-05-10T09:41:38.584Z,99356.85
2019-05-10T09:44:08.644Z,99354.27
2019-05-10T09:46:38.648Z,99358.59
2019-05-10T09:49:15.566Z,99361.72
2019-05-10T09:51:42.262Z,99356.82
2019-05-10T09:54:12.556Z,99350.12
2019-05-10T09:56:44.966Z,99346.97
2019-05-10T09:59:14.342Z,99353.11
2019-05-10T10:01:44.343Z,99348.62
2019-05-10T10:04:14.411Z,99348.81
2019-05-10T10:06:48.231Z,99350.31
2019-05-10T10:09:17.178Z,99356.17
2019-05-10T10:11:57.376Z,99356.14
2019-05-10T10:14:19.149Z,99353.15
2019-05-10T10:16:58.344Z,99355.41
2019-05-10T10:19:24.363Z,99352.77
2019-05-10T10:21:52.545Z,99353.48
2019-05-10T10:24:22.532Z,99356.66
2019-05-10T10:26:53.832Z,99355.16
2019-05-10T10:29:28.725Z,99354.40
2019-05-10T10:31:59.017Z,99350.69
2019-05-10T10:34:32.701Z,99343.72
2019-05-10T10:37:00.314Z,99347.70
2019-05-10T10:39:30.365Z,99343.75
2019-05-10T10:42:02.360Z,99349.25
2019-05-10T10:44:32.112Z,99352.00
2019-05-10T10:47:02.177Z,99349.51
2019-05-10T10:49:32.211Z,99350.57
2019-05-10T10:52:05.582Z,99352.29
2019-05-10T10:54:37.471Z,99347.11
2019-05-10T10:57:08.053Z,99353.80
2019-05-10T10:59:37.649Z,99361.72
2019-05-10T11:02:28.981Z,99353.90
2019-05-10T11:04:40.545Z,99354.78
2019-05-10T11:07:11.391Z,99356.24
2019-05-10T11:09:41.361Z,99357.56
2019-05-10T11:12:14.742Z,99355.08
2019-05-10T11:14:45.323Z,99349.73
2019-05-10T11:17:14.859Z,99351.89
2019-05-10T11:19:44.864Z,99352.34
2019-05-10T11:22:14.861Z,99352.25
2019-05-10T11:24:44.902Z,99361.47
2019-05-10T11:27:17.193Z,99352.34
2019-05-10T11:29:46.723Z,99352.36
2019-05-10T11:32:17.176Z,99354.44
2019-05-10T11:34:48.424Z,99349.84
2019-05-10T11:37:25.166Z,99344.85
2019-05-10T11:39:50.561Z,99345.10
2019-05-10T11:42:21.171Z,99350.19
2019-05-10T11:44:54.513Z,99339.67
2019-05-10T11:47:27.193Z,99340.95
2019-05-10T11:49:55.919Z,99336.01
2019-05-10T11:52:29.286Z,99331.52
2019-05-10T11:54:57.736Z,99331.64
2019-05-10T11:57:32.408Z,99329.09
2019-05-10T12:00:00.540Z,99329.69
2019-05-10T12:02:43.255Z,99332.79
2019-05-10T12:05:10.868Z,99325.73
2019-05-10T12:07:42.751Z,99327.02
2019-05-10T12:10:16.996Z,99333.16
2019-05-10T12:12:54.041Z,99327.97
2019-05-10T12:15:13.534Z,99328.11
2019-05-10T12:17:46.387Z,99321.50
2019-05-10T12:20:16.853Z,99330.26
2019-05-10T12:22:47.686Z,99337.87
2019-05-10T12:25:37.756Z,99338.06
2019-05-10T12:27:52.182Z,99344.58
2019-05-10T12:30:21.614Z,99340.41
2019-05-10T12:32:56.530Z,99341.23
2019-05-10T12:35:26.422Z,99339.34
2019-05-10T12:37:56.304Z,99338.34
2019-05-10T12:40:26.313Z,99338.19
2019-05-10T12:42:56.299Z,99346.34
2019-05-10T12:45:26.378Z,99341.89
2019-05-10T12:47:56.379Z,99342.61
2019-05-10T12:50:26.589Z,99347.52
2019-05-10T12:53:14.371Z,99344.45
2019-05-10T12:55:28.330Z,99340.50
2019-05-10T12:57:58.393Z,99346.05
2019-05-10T13:00:28.378Z,99339.36
2019-05-10T13:03:11.510Z,99345.02
2019-05-10T13:19:14.032Z,99347.92
2019-05-10T13:21:41.128Z,99362.11
2019-05-10T13:24:11.206Z,99358.43
2019-05-10T13:26:41.231Z,99362.70
2019-05-10T13:29:11.268Z,99361.61
2019-05-10T13:31:43.031Z,99357.16
2019-05-10T13:34:13.114Z,99357.11
2019-05-10T13:36:44.363Z,99359.92
2019-05-10T13:39:19.188Z,99354.64
2019-05-10T13:41:46.153Z,99350.59
2019-05-10T13:44:16.190Z,99352.77
2019-05-10T13:46:46.235Z,99361.65
2019-05-10T13:49:16.296Z,99353.52
2019-05-10T13:51:46.461Z,99361.19
2019-05-10T13:54:16.489Z,99360.89
2019-05-10T13:56:52.046Z,99367.64
2019-05-10T13:59:19.949Z,99367.39
2019-05-10T14:01:51.481Z,99371.34
2019-05-10T14:04:23.262Z,99368.78
2019-05-10T14:06:53.390Z,99372.66
2019-05-10T14:09:23.516Z,99378.37
2019-05-10T14:11:53.495Z,99379.45
2019-05-10T14:14:26.610Z,99382.56
2019-05-10T14:16:55.259Z,99376.07
2019-05-10T14:19:25.934Z,99368.06
2019-05-10T14:21:56.279Z,99364.95
2019-05-10T14:24:26.259Z,99357.56
2019-05-10T14:26:57.333Z,99355.33
2019-05-10T14:29:34.680Z,99360.32
2019-05-10T14:31:59.686Z,99353.37
2019-05-10T14:34:29.746Z,99357.20
2019-05-10T14:36:59.829Z,99351.56
2019-05-10T14:39:29.824Z,99354.30
2019-05-10T14:41:59.820Z,99356.08
2019-05-10T14:44:29.831Z,99352.89
2019-05-10T14:46:59.873Z,99353.06
2019-05-10T14:49:29.868Z,99354.69
2019-05-10T14:51:59.879Z,99357.41
2019-05-10T14:54:43.158Z,99355.76
2019-05-10T14:57:04.468Z,99348.98
2019-05-10T14:59:34.486Z,99337.53
2019-05-10T15:02:04.725Z,99337.93
2019-05-10T15:04:50.293Z,99342.81
2019-05-10T15:07:08.579Z,99340.11
2019-05-10T15:09:38.165Z,99331.55
2019-05-10T15:12:10.281Z,99338.50
2019-05-10T15:14:39.905Z,99333.54
2019-05-10T15:17:09.959Z,99335.80
2019-05-10T15:19:39.958Z,99322.84
2019-05-10T15:22:09.980Z,99321.58
2019-05-10T15:24:39.985Z,99323.55
2019-05-10T15:27:09.993Z,99317.94
2019-05-10T15:29:40.036Z,99317.67
2019-05-10T15:32:10.087Z,99319.80
2019-05-10T15:34:40.064Z,99321.88
2019-05-10T15:37:10.784Z,99319.27
2019-05-10T15:39:40.899Z,99326.86
2019-05-10T15:42:10.898Z,99330.37
2019-05-10T15:44:40.907Z,99326.97
2019-05-10T15:47:14.459Z,99328.30
2019-05-10T15:49:42.772Z,99329.88
2019-05-10T15:52:17.822Z,99330.98
2019-05-10T15:54:47.110Z,99325.45
2019-05-10T15:57:20.217Z,99323.05
2019-05-10T15:59:50.847Z,99323.54
2019-05-10T16:02:19.594Z,99332.98
2019-05-10T16:04:49.620Z,99324.78
2019-05-10T16:07:19.614Z,99324.33
2019-05-10T16:09:54.091Z,99320.21
2019-05-10T16:12:21.336Z,99320.78
2019-05-10T16:14:51.345Z,99326.83
2019-05-10T16:17:23.937Z,99320.92
2019-05-10T16:19:59.802Z,99330.63
2019-05-10T16:22:30.247Z,99336.45
2019-05-10T16:25:00.528Z,99330.52
2019-05-10T16:27:28.345Z,99327.91
2019-05-10T16:29:58.346Z,99332.14
2019-05-10T16:32:29.312Z,99328.86
2019-05-10T16:35:05.967Z,99330.11
2019-05-10T16:37:32.911Z,99329.05
2019-05-10T16:40:03.161Z,99326.22
2019-05-10T16:42:34.551Z,99336.38
2019-05-10T16:45:05.705Z,99330.82
2019-05-10T16:47:35.741Z,99327.20
2019-05-10T16:50:09.046Z,99332.82
2019-05-10T16:52:39.100Z,99332.14
2019-05-10T16:55:10.031Z,99332.75
2019-05-10T16:57:40.074Z,99331.28
2019-05-10T17:00:11.031Z,99337.06
2019-05-10T17:02:43.875Z,99339.58
2019-05-10T17:05:15.176Z,99335.09
2019-05-10T17:07:44.656Z,99335.20
2019-05-10T17:10:14.778Z,99332.38
2019-05-10T17:12:44.833Z,99327.80
2019-05-10T17:15:15.045Z,99329.12
2019-05-10T17:17:47.379Z,99331.16
2019-05-10T17:20:17.713Z,99325.07
2019-05-10T17:22:47.757Z,99321.72
2019-05-10T17:25:17.908Z,99319.56
2019-05-10T17:27:50.687Z,99319.75
2019-05-10T17:30:22.261Z,99318.20
2019-05-10T17:32:51.559Z,99321.19
2019-05-10T17:35:21.619Z,99323.15
2019-05-10T17:37:53.014Z,99324.73
2019-05-10T17:40:23.142Z,99323.83
2019-05-10T17:42:53.205Z,99339.42
2019-05-10T17:45:23.167Z,99343.55
2019-05-10T17:47:53.139Z,99342.15
2019-05-10T17:50:23.148Z,99340.83
2019-05-10T17:52:53.152Z,99336.63
2019-05-10T17:55:25.427Z,99340.11
2019-05-10T17:57:56.508Z,99343.64
2019-05-10T18:00:26.770Z,99343.16
2019-05-10T18:02:56.777Z,99361.53
2019-05-10T18:05:26.795Z,99354.35
2019-05-10T18:07:56.826Z,99362.88
2019-05-10T18:10:27.949Z,99358.40
2019-05-10T18:13:03.481Z,99358.08
2019-05-10T18:15:32.982Z,99354.95
2019-05-10T18:18:02.500Z,99360.38
2019-05-10T18:20:41.046Z,99353.63
2019-05-10T18:23:04.919Z,99351.39
2019-05-10T18:25:35.006Z,99360.13
2019-05-10T18:28:05.062Z,99364.19
2019-05-10T18:30:35.226Z,99367.73
2019-05-10T18:33:06.715Z,99366.41
2019-05-10T18:35:37.128Z,99366.06
2019-05-10T18:38:07.107Z,99368.61
2019-05-10T18:40:37.202Z,99373.40
2019-05-10T18:43:07.255Z,99378.19
2019-05-10T18:45:38.282Z,99379.98
2019-05-10T18:48:08.382Z,99378.82
2019-05-10T18:50:39.754Z,99386.09
2019-05-10T18:53:10.164Z,99385.13
2019-05-10T18:55:40.147Z,99386.09
2019-05-10T18:58:10.207Z,99388.66
2019-05-10T19:00:40.423Z,99388.84
2019-05-10T19:03:10.461Z,99385.42
2019-05-10T19:05:40.614Z,99383.80
2019-05-10T19:08:10.688Z,99388.61
2019-05-10T19:10:40.735Z,99386.34
2019-05-10T19:13:11.206Z,99387.71
2019-05-10T19:15:46.298Z,99387.04
2019-05-10T19:18:17.817Z,99391.37
2019-05-10T19:20:48.843Z,99391.97
2019-05-10T19:23:19.432Z,99398.71
2019-05-10T19:25:51.901Z,99399.72
2019-05-10T19:28:21.012Z,99399.89
2019-05-10T19:30:52.735Z,99400.83
2019-05-10T19:33:23.301Z,99400.67
2019-05-10T19:35:53.285Z,99398.58
2019-05-10T19:38:23.278Z,99405.14
2019-05-10T19:40:53.314Z,99406.48
2019-05-10T19:43:24.046Z,99405.44
2019-05-10T19:45:57.632Z,99411.09
2019-05-10T19:48:29.375Z,99414.16
2019-05-10T19:51:02.950Z,99412.44
2019-05-10T19:53:31.354Z,99405.82
2019-05-10T19:56:04.068Z,99408.19
2019-05-10T19:58:34.028Z,99409.05
2019-05-10T20:01:08.837Z,99414.56
2019-05-10T20:03:38.831Z,99415.17
2019-05-10T20:06:08.811Z,99404.14
2019-05-10T20:08:38.793Z,99416.25
2019-05-10T20:11:08.829Z,99414.88
2019-05-10T20:13:38.906Z,99419.22
2019-05-10T20:16:08.978Z,99425.72
2019-05-10T20:18:39.047Z,99423.92
2019-05-10T20:21:09.026Z,99425.97
2019-05-10T20:23:39.068Z,99427.09
2019-05-10T20:28:52.526Z,99428.47
2019-05-10T20:31:22.603Z,99431.14
2019-05-10T20:33:52.585Z,99422.17
2019-05-10T20:36:22.673Z,99438.33
2019-05-10T20:38:52.704Z,99428.87
2019-05-10T20:41:22.698Z,99431.74
2019-05-10T20:43:52.726Z,99427.05
2019-05-10T20:46:22.724Z,99431.74
2019-05-10T20:48:52.768Z,99437.27
2019-05-10T20:51:22.759Z,99436.78
2019-05-10T20:53:52.796Z,99430.30
2019-05-10T20:56:22.784Z,99434.14
2019-05-10T20:58:52.817Z,99446.59
2019-05-10T21:01:22.791Z,99440.15
2019-05-10T21:03:52.812Z,99440.02
2019-05-10T21:06:22.801Z,99441.69
2019-05-10T21:08:52.786Z,99442.55
2019-05-10T21:11:22.793Z,99442.28
2019-05-10T21:13:52.846Z,99443.60
2019-05-10T21:16:22.921Z,99443.13
2019-05-10T21:18:52.918Z,99442.53
2019-05-10T21:21:22.933Z,99450.08
2019-05-10T21:23:52.912Z,99448.27
2019-05-10T21:26:22.978Z,99450.33
2019-05-10T21:28:53.021Z,99446.86
2019-05-10T21:31:23.056Z,99453.54
2019-05-10T21:34:08.251Z,99450.68
2019-05-10T21:36:24.882Z,99450.20
2019-05-10T21:38:54.829Z,99446.48
2019-05-10T21:41:24.898Z,99455.81
2019-05-10T21:43:54.882Z,99454.12
2019-05-10T21:46:24.860Z,99458.36
2019-05-10T21:48:54.890Z,99461.95
2019-05-10T21:51:24.861Z,99455.02
2019-05-10T21:53:54.903Z,99460.45
2019-05-10T21:56:24.903Z,99455.73
2019-05-10T21:58:54.877Z,99466.13
2019-05-10T22:01:25.004Z,99462.63
2019-05-10T22:03:55.157Z,99460.21
2019-05-10T22:06:25.144Z,99468.23
2019-05-10T22:08:55.125Z,99464.52
2019-05-10T22:11:25.283Z,99468.72
2019-05-10T22:13:55.364Z,99463.84
2019-05-10T22:16:25.401Z,99463.77
2019-05-10T22:19:02.896Z,99470.42
2019-05-10T22:21:32.944Z,99475.55
2019-05-10T22:24:03.008Z,99479.11
2019-05-10T22:26:32.996Z,99482.73
2019-05-10T22:29:03.054Z,99480.30
2019-05-10T22:31:33.113Z,99484.13
2019-05-10T22:34:03.164Z,99478.56
2019-05-10T22:36:33.213Z,99480.67
2019-05-10T22:39:07.443Z,99477.47
2019-05-10T22:41:36.629Z,99484.63
2019-05-10T22:44:06.685Z,99490.48
2019-05-10T22:46:36.665Z,99485.66
2019-05-10T22:49:06.727Z,99479.91
2019-05-10T22:51:36.689Z,99486.55
2019-05-10T22:54:06.698Z,99491.06
2019-05-10T22:56:36.695Z,99489.23
2019-05-10T22:59:06.736Z,99483.03
2019-05-10T23:01:36.805Z,99491.00
2019-05-10T23:04:06.810Z,99495.33
2019-05-10T23:06:36.855Z,99490.56
2019-05-10T23:09:23.607Z,99485.70
2019-05-10T23:11:39.909Z,99487.85
2019-05-10T23:14:09.940Z,99491.66
2019-05-10T23:16:39.986Z,99502.84
2019-05-10T23:19:10.012Z,99498.91
2019-05-10T23:21:39.985Z,99498.25
2019-05-10T23:24:11.614Z,99496.52
2019-05-10T23:26:41.607Z,99499.09
2019-05-10T23:29:11.597Z,99491.98
2019-05-10T23:31:41.582Z,99491.36
2019-05-10T23:34:11.563Z,99493.85
2019-05-10T23:36:41.648Z,99496.55
2019-05-10T23:39:11.700Z,99494.89
2019-05-10T23:41:41.720Z,99475.47
2019-05-10T23:44:11.769Z,99484.83
2019-05-10T23:46:41.749Z,99482.73
2019-05-10T23:49:11.779Z,99480.11
2019-05-10T23:51:41.761Z,99485.43
2019-05-10T23:54:11.842Z,99483.91
2019-05-10T23:56:41.840Z,99489.83
2019-05-10T23:59:11.841Z,99487.42
